sensor_id;sensor_type;location;lat;lon;timestamp;P1;durP1;ratioP1;P2;durP2;ratioP2
10721;SDS011;5412;59.450;18.124;2023-07-02T00:00:41;2.35;;;1.67;;
10721;SDS011;5412;59.450;18.124;2023-07-02T00:03:06;3.97;;;1.80;;
10721;SDS011;5412;59.450;18.124;2023-07-02T00:05:32;1.52;;;1.42;;
10721;SDS011;5412;59.450;18.124;2023-07-02T00:07:58;1.60;;;1.50;;
10721;SDS011;5412;59.450;18.124;2023-07-02T00:10:23;2.40;;;1.73;;
10721;SDS011;5412;59.450;18.124;2023-07-02T00:12:50;2.03;;;1.77;;
10721;SDS011;5412;59.450;18.124;2023-07-02T00:15:15;1.65;;;1.50;;
10721;SDS011;5412;59.450;18.124;2023-07-02T00:17:41;3.20;;;2.08;;
10721;SDS011;5412;59.450;18.124;2023-07-02T00:20:07;3.38;;;1.90;;
10721;SDS011;5412;59.450;18.124;2023-07-02T00:22:39;2.83;;;1.67;;
10721;SDS011;5412;59.450;18.124;2023-07-02T00:25:09;1.70;;;1.60;;
10721;SDS011;5412;59.450;18.124;2023-07-02T00:27:35;1.70;;;1.60;;
10721;SDS011;5412;59.450;18.124;2023-07-02T00:30:02;2.60;;;1.75;;
10721;SDS011;5412;59.450;18.124;2023-07-02T00:32:28;1.67;;;1.50;;
10721;SDS011;5412;59.450;18.124;2023-07-02T00:34:54;3.80;;;1.90;;
10721;SDS011;5412;59.450;18.124;2023-07-02T00:37:19;2.08;;;1.95;;
10721;SDS011;5412;59.450;18.124;2023-07-02T00:39:45;2.08;;;1.58;;
10721;SDS011;5412;59.450;18.124;2023-07-02T00:42:11;3.05;;;2.08;;
10721;SDS011;5412;59.450;18.124;2023-07-02T00:44:37;2.28;;;1.77;;
10721;SDS011;5412;59.450;18.124;2023-07-02T00:47:09;1.88;;;1.77;;
10721;SDS011;5412;59.450;18.124;2023-07-02T00:49:35;2.03;;;1.88;;
10721;SDS011;5412;59.450;18.124;2023-07-02T00:52:01;2.47;;;2.20;;
10721;SDS011;5412;59.450;18.124;2023-07-02T00:54:28;2.22;;;2.03;;
10721;SDS011;5412;59.450;18.124;2023-07-02T00:56:54;1.92;;;1.60;;
10721;SDS011;5412;59.450;18.124;2023-07-02T00:59:20;2.20;;;2.00;;
10721;SDS011;5412;59.450;18.124;2023-07-02T01:01:46;1.70;;;1.60;;
10721;SDS011;5412;59.450;18.124;2023-07-02T01:04:18;1.80;;;1.70;;
10721;SDS011;5412;59.450;18.124;2023-07-02T01:06:44;2.35;;;2.15;;
10721;SDS011;5412;59.450;18.124;2023-07-02T01:09:10;2.85;;;1.92;;
10721;SDS011;5412;59.450;18.124;2023-07-02T01:11:49;2.47;;;1.92;;
10721;SDS011;5412;59.450;18.124;2023-07-02T01:14:22;2.17;;;1.83;;
10721;SDS011;5412;59.450;18.124;2023-07-02T01:16:51;2.28;;;2.05;;
10721;SDS011;5412;59.450;18.124;2023-07-02T01:19:21;2.30;;;1.90;;
10721;SDS011;5412;59.450;18.124;2023-07-02T01:21:58;2.97;;;1.88;;
10721;SDS011;5412;59.450;18.124;2023-07-02T01:24:25;2.40;;;1.90;;
10721;SDS011;5412;59.450;18.124;2023-07-02T01:26:52;2.10;;;2.00;;
10721;SDS011;5412;59.450;18.124;2023-07-02T01:29:19;2.25;;;2.05;;
10721;SDS011;5412;59.450;18.124;2023-07-02T01:31:45;2.10;;;1.85;;
10721;SDS011;5412;59.450;18.124;2023-07-02T01:34:13;1.70;;;1.60;;
10721;SDS011;5412;59.450;18.124;2023-07-02T01:36:39;2.45;;;2.03;;
10721;SDS011;5412;59.450;18.124;2023-07-02T01:39:05;2.50;;;1.95;;
10721;SDS011;5412;59.450;18.124;2023-07-02T01:41:41;2.67;;;2.00;;
10721;SDS011;5412;59.450;18.124;2023-07-02T01:44:15;1.92;;;1.73;;
10721;SDS011;5412;59.450;18.124;2023-07-02T01:46:41;2.08;;;1.88;;
10721;SDS011;5412;59.450;18.124;2023-07-02T01:49:06;2.15;;;2.05;;
10721;SDS011;5412;59.450;18.124;2023-07-02T01:51:33;1.85;;;1.70;;
10721;SDS011;5412;59.450;18.124;2023-07-02T01:53:59;1.95;;;1.80;;
10721;SDS011;5412;59.450;18.124;2023-07-02T01:56:25;1.90;;;1.73;;
10721;SDS011;5412;59.450;18.124;2023-07-02T01:58:51;2.30;;;1.70;;
10721;SDS011;5412;59.450;18.124;2023-07-02T02:01:18;1.70;;;1.60;;
10721;SDS011;5412;59.450;18.124;2023-07-02T02:03:43;1.83;;;1.73;;
10721;SDS011;5412;59.450;18.124;2023-07-02T02:06:09;1.77;;;1.67;;
10721;SDS011;5412;59.450;18.124;2023-07-02T02:08:35;2.45;;;1.92;;
10721;SDS011;5412;59.450;18.124;2023-07-02T02:11:00;5.03;;;2.00;;
10721;SDS011;5412;59.450;18.124;2023-07-02T02:13:26;2.17;;;1.98;;
10721;SDS011;5412;59.450;18.124;2023-07-02T02:15:53;2.17;;;1.83;;
10721;SDS011;5412;59.450;18.124;2023-07-02T02:18:19;2.63;;;1.90;;
10721;SDS011;5412;59.450;18.124;2023-07-02T02:20:45;2.13;;;1.90;;
10721;SDS011;5412;59.450;18.124;2023-07-02T02:23:11;1.80;;;1.70;;
10721;SDS011;5412;59.450;18.124;2023-07-02T02:25:36;2.22;;;2.00;;
10721;SDS011;5412;59.450;18.124;2023-07-02T02:28:02;1.83;;;1.70;;
10721;SDS011;5412;59.450;18.124;2023-07-02T02:30:28;2.28;;;1.70;;
10721;SDS011;5412;59.450;18.124;2023-07-02T02:32:54;5.57;;;2.00;;
10721;SDS011;5412;59.450;18.124;2023-07-02T02:35:19;2.20;;;2.00;;
10721;SDS011;5412;59.450;18.124;2023-07-02T02:37:45;1.92;;;1.83;;
10721;SDS011;5412;59.450;18.124;2023-07-02T02:40:11;2.10;;;1.90;;
10721;SDS011;5412;59.450;18.124;2023-07-02T02:42:38;2.88;;;2.20;;
10721;SDS011;5412;59.450;18.124;2023-07-02T02:45:04;2.28;;;1.98;;
10721;SDS011;5412;59.450;18.124;2023-07-02T02:47:30;2.35;;;1.90;;
10721;SDS011;5412;59.450;18.124;2023-07-02T02:49:56;1.90;;;1.80;;
10721;SDS011;5412;59.450;18.124;2023-07-02T02:52:21;4.30;;;1.95;;
10721;SDS011;5412;59.450;18.124;2023-07-02T02:54:47;2.08;;;1.70;;
10721;SDS011;5412;59.450;18.124;2023-07-02T02:57:14;3.58;;;1.90;;
10721;SDS011;5412;59.450;18.124;2023-07-02T02:59:40;1.50;;;1.40;;
10721;SDS011;5412;59.450;18.124;2023-07-02T03:02:06;2.40;;;1.90;;
10721;SDS011;5412;59.450;18.124;2023-07-02T03:04:31;1.95;;;1.85;;
10721;SDS011;5412;59.450;18.124;2023-07-02T03:06:57;2.28;;;2.08;;
10721;SDS011;5412;59.450;18.124;2023-07-02T03:09:23;2.63;;;2.25;;
10721;SDS011;5412;59.450;18.124;2023-07-02T03:11:48;2.63;;;2.35;;
10721;SDS011;5412;59.450;18.124;2023-07-02T03:14:14;1.70;;;1.60;;
10721;SDS011;5412;59.450;18.124;2023-07-02T03:16:41;2.25;;;1.90;;
10721;SDS011;5412;59.450;18.124;2023-07-02T03:19:07;5.63;;;2.08;;
10721;SDS011;5412;59.450;18.124;2023-07-02T03:21:33;2.45;;;2.17;;
10721;SDS011;5412;59.450;18.124;2023-07-02T03:23:59;2.33;;;2.00;;
10721;SDS011;5412;59.450;18.124;2023-07-02T03:26:25;2.95;;;2.10;;
10721;SDS011;5412;59.450;18.124;2023-07-02T03:28:50;1.88;;;1.77;;
10721;SDS011;5412;59.450;18.124;2023-07-02T03:31:16;2.13;;;1.92;;
10721;SDS011;5412;59.450;18.124;2023-07-02T03:33:42;3.03;;;2.05;;
10721;SDS011;5412;59.450;18.124;2023-07-02T03:36:08;2.83;;;2.47;;
10721;SDS011;5412;59.450;18.124;2023-07-02T03:38:33;3.55;;;1.95;;
10721;SDS011;5412;59.450;18.124;2023-07-02T03:40:59;2.88;;;1.90;;
10721;SDS011;5412;59.450;18.124;2023-07-02T03:43:25;2.88;;;2.20;;
10721;SDS011;5412;59.450;18.124;2023-07-02T03:45:54;2.53;;;1.92;;
10721;SDS011;5412;59.450;18.124;2023-07-02T03:48:19;3.55;;;2.47;;
10721;SDS011;5412;59.450;18.124;2023-07-02T03:50:45;3.15;;;2.13;;
10721;SDS011;5412;59.450;18.124;2023-07-02T03:53:11;2.83;;;2.53;;
10721;SDS011;5412;59.450;18.124;2023-07-02T03:55:37;2.28;;;2.08;;
10721;SDS011;5412;59.450;18.124;2023-07-02T03:58:04;4.88;;;2.50;;
10721;SDS011;5412;59.450;18.124;2023-07-02T04:00:29;3.00;;;2.50;;
10721;SDS011;5412;59.450;18.124;2023-07-02T04:02:55;2.45;;;2.20;;
10721;SDS011;5412;59.450;18.124;2023-07-02T04:05:21;2.42;;;2.22;;
10721;SDS011;5412;59.450;18.124;2023-07-02T04:07:47;2.22;;;2.00;;
10721;SDS011;5412;59.450;18.124;2023-07-02T04:10:13;3.42;;;2.45;;
10721;SDS011;5412;59.450;18.124;2023-07-02T04:12:38;3.17;;;2.15;;
10721;SDS011;5412;59.450;18.124;2023-07-02T04:15:04;6.15;;;2.00;;
10721;SDS011;5412;59.450;18.124;2023-07-02T04:17:30;2.00;;;1.85;;
10721;SDS011;5412;59.450;18.124;2023-07-02T04:19:56;2.40;;;2.20;;
10721;SDS011;5412;59.450;18.124;2023-07-02T04:22:24;2.22;;;2.08;;
10721;SDS011;5412;59.450;18.124;2023-07-02T04:24:50;2.63;;;2.17;;
10721;SDS011;5412;59.450;18.124;2023-07-02T04:27:16;2.50;;;2.30;;
10721;SDS011;5412;59.450;18.124;2023-07-02T04:29:42;3.25;;;2.42;;
10721;SDS011;5412;59.450;18.124;2023-07-02T04:32:09;2.70;;;2.17;;
10721;SDS011;5412;59.450;18.124;2023-07-02T04:34:35;2.05;;;1.88;;
10721;SDS011;5412;59.450;18.124;2023-07-02T04:37:04;3.40;;;2.17;;
10721;SDS011;5412;59.450;18.124;2023-07-02T04:39:30;4.05;;;2.65;;
10721;SDS011;5412;59.450;18.124;2023-07-02T04:41:56;6.85;;;2.47;;
10721;SDS011;5412;59.450;18.124;2023-07-02T04:44:22;2.47;;;2.10;;
10721;SDS011;5412;59.450;18.124;2023-07-02T04:46:57;2.15;;;1.95;;
10721;SDS011;5412;59.450;18.124;2023-07-02T04:49:24;2.92;;;2.00;;
10721;SDS011;5412;59.450;18.124;2023-07-02T04:51:50;4.40;;;2.22;;
10721;SDS011;5412;59.450;18.124;2023-07-02T04:54:18;3.05;;;2.38;;
10721;SDS011;5412;59.450;18.124;2023-07-02T04:56:47;2.30;;;2.10;;
10721;SDS011;5412;59.450;18.124;2023-07-02T04:59:13;2.50;;;2.00;;
10721;SDS011;5412;59.450;18.124;2023-07-02T05:01:40;2.30;;;2.10;;
10721;SDS011;5412;59.450;18.124;2023-07-02T05:04:06;2.35;;;2.00;;
10721;SDS011;5412;59.450;18.124;2023-07-02T05:06:31;2.92;;;1.88;;
10721;SDS011;5412;59.450;18.124;2023-07-02T05:08:57;2.35;;;2.10;;
10721;SDS011;5412;59.450;18.124;2023-07-02T05:11:23;2.88;;;2.20;;
10721;SDS011;5412;59.450;18.124;2023-07-02T05:13:48;4.03;;;2.05;;
10721;SDS011;5412;59.450;18.124;2023-07-02T05:16:14;2.28;;;1.98;;
10721;SDS011;5412;59.450;18.124;2023-07-02T05:18:40;4.35;;;2.20;;
10721;SDS011;5412;59.450;18.124;2023-07-02T05:21:06;2.03;;;1.65;;
10721;SDS011;5412;59.450;18.124;2023-07-02T05:23:31;4.20;;;2.15;;
10721;SDS011;5412;59.450;18.124;2023-07-02T05:25:57;2.45;;;2.05;;
10721;SDS011;5412;59.450;18.124;2023-07-02T05:28:23;2.53;;;2.13;;
10721;SDS011;5412;59.450;18.124;2023-07-02T05:30:50;4.40;;;2.10;;
10721;SDS011;5412;59.450;18.124;2023-07-02T05:33:15;2.10;;;1.88;;
10721;SDS011;5412;59.450;18.124;2023-07-02T05:35:41;2.55;;;2.10;;
10721;SDS011;5412;59.450;18.124;2023-07-02T05:38:07;3.08;;;2.17;;
10721;SDS011;5412;59.450;18.124;2023-07-02T05:40:33;3.45;;;1.90;;
10721;SDS011;5412;59.450;18.124;2023-07-02T05:42:58;2.20;;;1.95;;
10721;SDS011;5412;59.450;18.124;2023-07-02T05:45:24;3.25;;;2.13;;
10721;SDS011;5412;59.450;18.124;2023-07-02T05:47:52;2.30;;;2.10;;
10721;SDS011;5412;59.450;18.124;2023-07-02T05:50:18;2.67;;;2.03;;
10721;SDS011;5412;59.450;18.124;2023-07-02T05:52:43;2.78;;;2.40;;
10721;SDS011;5412;59.450;18.124;2023-07-02T05:55:09;2.55;;;2.20;;
10721;SDS011;5412;59.450;18.124;2023-07-02T05:57:36;3.80;;;2.28;;
10721;SDS011;5412;59.450;18.124;2023-07-02T06:00:03;2.30;;;2.10;;
10721;SDS011;5412;59.450;18.124;2023-07-02T06:02:31;4.13;;;2.33;;
10721;SDS011;5412;59.450;18.124;2023-07-02T06:04:57;2.35;;;2.13;;
10721;SDS011;5412;59.450;18.124;2023-07-02T06:07:25;2.40;;;2.20;;
10721;SDS011;5412;59.450;18.124;2023-07-02T06:09:51;2.50;;;2.30;;
10721;SDS011;5412;59.450;18.124;2023-07-02T06:12:17;2.60;;;2.20;;
10721;SDS011;5412;59.450;18.124;2023-07-02T06:14:43;2.65;;;2.40;;
10721;SDS011;5412;59.450;18.124;2023-07-02T06:17:08;3.72;;;2.47;;
10721;SDS011;5412;59.450;18.124;2023-07-02T06:19:36;3.63;;;2.33;;
10721;SDS011;5412;59.450;18.124;2023-07-02T06:22:02;2.22;;;2.03;;
10721;SDS011;5412;59.450;18.124;2023-07-02T06:24:28;2.58;;;2.38;;
10721;SDS011;5412;59.450;18.124;2023-07-02T06:26:54;4.80;;;2.45;;
10721;SDS011;5412;59.450;18.124;2023-07-02T06:29:21;2.40;;;2.20;;
10721;SDS011;5412;59.450;18.124;2023-07-02T06:31:48;2.65;;;2.03;;
10721;SDS011;5412;59.450;18.124;2023-07-02T06:34:14;3.55;;;2.35;;
10721;SDS011;5412;59.450;18.124;2023-07-02T06:36:40;4.03;;;2.10;;
10721;SDS011;5412;59.450;18.124;2023-07-02T06:39:06;4.32;;;2.45;;
10721;SDS011;5412;59.450;18.124;2023-07-02T06:41:34;3.28;;;2.05;;
10721;SDS011;5412;59.450;18.124;2023-07-02T06:44:00;2.30;;;2.10;;
10721;SDS011;5412;59.450;18.124;2023-07-02T06:46:26;3.75;;;2.70;;
10721;SDS011;5412;59.450;18.124;2023-07-02T06:48:52;3.30;;;2.55;;
10721;SDS011;5412;59.450;18.124;2023-07-02T06:51:17;2.30;;;2.10;;
10721;SDS011;5412;59.450;18.124;2023-07-02T06:53:44;2.20;;;2.00;;
10721;SDS011;5412;59.450;18.124;2023-07-02T06:56:10;2.30;;;2.10;;
10721;SDS011;5412;59.450;18.124;2023-07-02T06:58:36;2.05;;;1.88;;
10721;SDS011;5412;59.450;18.124;2023-07-02T07:01:02;2.30;;;2.08;;
10721;SDS011;5412;59.450;18.124;2023-07-02T07:03:28;2.92;;;2.30;;
10721;SDS011;5412;59.450;18.124;2023-07-02T07:05:54;2.60;;;2.40;;
10721;SDS011;5412;59.450;18.124;2023-07-02T07:08:19;2.45;;;2.25;;
10721;SDS011;5412;59.450;18.124;2023-07-02T07:10:45;2.10;;;1.90;;
10721;SDS011;5412;59.450;18.124;2023-07-02T07:13:12;2.13;;;1.95;;
10721;SDS011;5412;59.450;18.124;2023-07-02T07:15:37;3.78;;;2.38;;
10721;SDS011;5412;59.450;18.124;2023-07-02T07:18:04;4.50;;;2.47;;
10721;SDS011;5412;59.450;18.124;2023-07-02T07:20:30;3.45;;;2.28;;
10721;SDS011;5412;59.450;18.124;2023-07-02T07:22:56;2.30;;;2.10;;
10721;SDS011;5412;59.450;18.124;2023-07-02T07:25:22;2.30;;;2.10;;
10721;SDS011;5412;59.450;18.124;2023-07-02T07:27:48;2.30;;;2.10;;
10721;SDS011;5412;59.450;18.124;2023-07-02T07:30:14;2.65;;;2.45;;
10721;SDS011;5412;59.450;18.124;2023-07-02T07:32:40;2.38;;;1.90;;
10721;SDS011;5412;59.450;18.124;2023-07-02T07:35:06;3.35;;;2.10;;
10721;SDS011;5412;59.450;18.124;2023-07-02T07:37:32;2.35;;;2.17;;
10721;SDS011;5412;59.450;18.124;2023-07-02T07:39:58;4.30;;;2.75;;
10721;SDS011;5412;59.450;18.124;2023-07-02T07:42:24;3.15;;;1.90;;
10721;SDS011;5412;59.450;18.124;2023-07-02T07:44:50;2.38;;;2.17;;
10721;SDS011;5412;59.450;18.124;2023-07-02T07:47:15;4.45;;;2.20;;
10721;SDS011;5412;59.450;18.124;2023-07-02T07:49:41;2.40;;;2.20;;
10721;SDS011;5412;59.450;18.124;2023-07-02T07:52:07;2.63;;;2.03;;
10721;SDS011;5412;59.450;18.124;2023-07-02T07:54:33;4.07;;;2.17;;
10721;SDS011;5412;59.450;18.124;2023-07-02T07:57:03;2.83;;;2.20;;
10721;SDS011;5412;59.450;18.124;2023-07-02T07:59:29;2.80;;;2.42;;
10721;SDS011;5412;59.450;18.124;2023-07-02T08:01:55;3.38;;;2.10;;
10721;SDS011;5412;59.450;18.124;2023-07-02T08:04:21;2.28;;;2.08;;
10721;SDS011;5412;59.450;18.124;2023-07-02T08:06:46;2.42;;;2.22;;
10721;SDS011;5412;59.450;18.124;2023-07-02T08:09:12;4.20;;;2.47;;
10721;SDS011;5412;59.450;18.124;2023-07-02T08:11:38;3.70;;;2.50;;
10721;SDS011;5412;59.450;18.124;2023-07-02T08:14:04;2.72;;;2.40;;
10721;SDS011;5412;59.450;18.124;2023-07-02T08:16:29;3.42;;;2.40;;
10721;SDS011;5412;59.450;18.124;2023-07-02T08:18:55;2.22;;;2.08;;
10721;SDS011;5412;59.450;18.124;2023-07-02T08:21:21;3.53;;;2.67;;
10721;SDS011;5412;59.450;18.124;2023-07-02T08:23:46;3.10;;;2.58;;
10721;SDS011;5412;59.450;18.124;2023-07-02T08:26:12;2.85;;;2.63;;
10721;SDS011;5412;59.450;18.124;2023-07-02T08:28:39;4.10;;;2.78;;
10721;SDS011;5412;59.450;18.124;2023-07-02T08:31:05;3.22;;;2.33;;
10721;SDS011;5412;59.450;18.124;2023-07-02T08:33:31;2.78;;;2.53;;
10721;SDS011;5412;59.450;18.124;2023-07-02T08:35:56;4.28;;;2.90;;
10721;SDS011;5412;59.450;18.124;2023-07-02T08:38:22;3.40;;;3.03;;
10721;SDS011;5412;59.450;18.124;2023-07-02T08:40:51;3.67;;;2.95;;
10721;SDS011;5412;59.450;18.124;2023-07-02T08:43:17;2.92;;;2.55;;
10721;SDS011;5412;59.450;18.124;2023-07-02T08:45:43;4.18;;;2.85;;
10721;SDS011;5412;59.450;18.124;2023-07-02T08:48:12;3.95;;;2.72;;
10721;SDS011;5412;59.450;18.124;2023-07-02T08:50:38;3.35;;;3.00;;
10721;SDS011;5412;59.450;18.124;2023-07-02T08:53:04;5.40;;;3.58;;
10721;SDS011;5412;59.450;18.124;2023-07-02T08:55:29;3.58;;;3.28;;
10721;SDS011;5412;59.450;18.124;2023-07-02T08:57:55;4.85;;;3.20;;
10721;SDS011;5412;59.450;18.124;2023-07-02T09:00:24;3.60;;;3.08;;
10721;SDS011;5412;59.450;18.124;2023-07-02T09:02:51;3.03;;;2.72;;
10721;SDS011;5412;59.450;18.124;2023-07-02T09:05:17;3.50;;;2.78;;
10721;SDS011;5412;59.450;18.124;2023-07-02T09:07:46;10.73;;;3.00;;
10721;SDS011;5412;59.450;18.124;2023-07-02T09:10:24;4.18;;;3.15;;
10721;SDS011;5412;59.450;18.124;2023-07-02T09:13:01;3.15;;;2.78;;
10721;SDS011;5412;59.450;18.124;2023-07-02T09:15:36;4.65;;;2.92;;
10721;SDS011;5412;59.450;18.124;2023-07-02T09:18:15;4.40;;;3.78;;
10721;SDS011;5412;59.450;18.124;2023-07-02T09:20:42;4.90;;;3.25;;
10721;SDS011;5412;59.450;18.124;2023-07-02T09:23:08;3.40;;;3.10;;
10721;SDS011;5412;59.450;18.124;2023-07-02T09:25:37;5.00;;;2.90;;
10721;SDS011;5412;59.450;18.124;2023-07-02T09:28:20;6.43;;;3.45;;
10721;SDS011;5412;59.450;18.124;2023-07-02T09:30:52;6.45;;;3.17;;
10721;SDS011;5412;59.450;18.124;2023-07-02T09:33:19;8.07;;;3.85;;
10721;SDS011;5412;59.450;18.124;2023-07-02T09:35:45;17.55;;;13.55;;
10721;SDS011;5412;59.450;18.124;2023-07-02T09:38:11;13.35;;;10.80;;
10721;SDS011;5412;59.450;18.124;2023-07-02T09:40:39;9.10;;;3.58;;
10721;SDS011;5412;59.450;18.124;2023-07-02T09:43:17;5.95;;;3.95;;
10721;SDS011;5412;59.450;18.124;2023-07-02T09:45:44;5.13;;;4.50;;
10721;SDS011;5412;59.450;18.124;2023-07-02T09:48:14;5.13;;;3.40;;
10721;SDS011;5412;59.450;18.124;2023-07-02T09:50:44;4.00;;;3.63;;
10721;SDS011;5412;59.450;18.124;2023-07-02T09:53:12;5.18;;;3.30;;
10721;SDS011;5412;59.450;18.124;2023-07-02T09:55:38;5.90;;;3.38;;
10721;SDS011;5412;59.450;18.124;2023-07-02T09:58:05;5.18;;;4.20;;
10721;SDS011;5412;59.450;18.124;2023-07-02T10:00:31;3.53;;;3.17;;
10721;SDS011;5412;59.450;18.124;2023-07-02T10:02:58;4.78;;;3.70;;
10721;SDS011;5412;59.450;18.124;2023-07-02T10:05:28;3.67;;;3.38;;
10721;SDS011;5412;59.450;18.124;2023-07-02T10:07:59;3.33;;;3.03;;
10721;SDS011;5412;59.450;18.124;2023-07-02T10:10:41;4.10;;;3.72;;
10721;SDS011;5412;59.450;18.124;2023-07-02T10:13:07;5.28;;;3.40;;
10721;SDS011;5412;59.450;18.124;2023-07-02T10:15:33;3.08;;;2.83;;
10721;SDS011;5412;59.450;18.124;2023-07-02T10:18:08;6.53;;;3.97;;
10721;SDS011;5412;59.450;18.124;2023-07-02T10:23:01;4.30;;;3.50;;
10721;SDS011;5412;59.450;18.124;2023-07-02T10:25:28;4.13;;;3.40;;
10721;SDS011;5412;59.450;18.124;2023-07-02T10:27:55;3.80;;;3.20;;
10721;SDS011;5412;59.450;18.124;2023-07-02T10:30:33;3.15;;;2.90;;
10721;SDS011;5412;59.450;18.124;2023-07-02T10:35:36;3.08;;;2.80;;
10721;SDS011;5412;59.450;18.124;2023-07-02T10:38:03;4.50;;;3.25;;
10721;SDS011;5412;59.450;18.124;2023-07-02T10:40:31;4.15;;;3.15;;
10721;SDS011;5412;59.450;18.124;2023-07-02T10:42:58;3.53;;;2.55;;
10721;SDS011;5412;59.450;18.124;2023-07-02T10:45:30;3.40;;;3.08;;
10721;SDS011;5412;59.450;18.124;2023-07-02T10:47:58;3.13;;;2.78;;
10721;SDS011;5412;59.450;18.124;2023-07-02T10:50:24;4.72;;;2.88;;
10721;SDS011;5412;59.450;18.124;2023-07-02T10:52:51;3.20;;;2.90;;
10721;SDS011;5412;59.450;18.124;2023-07-02T10:55:18;2.83;;;2.47;;
10721;SDS011;5412;59.450;18.124;2023-07-02T10:57:45;5.88;;;3.05;;
10721;SDS011;5412;59.450;18.124;2023-07-02T11:00:11;2.55;;;2.35;;
10721;SDS011;5412;59.450;18.124;2023-07-02T11:02:37;1.98;;;1.88;;
10721;SDS011;5412;59.450;18.124;2023-07-02T11:05:06;2.63;;;1.90;;
10721;SDS011;5412;59.450;18.124;2023-07-02T11:07:37;2.03;;;1.92;;
10721;SDS011;5412;59.450;18.124;2023-07-02T11:10:07;2.38;;;1.85;;
10721;SDS011;5412;59.450;18.124;2023-07-02T11:12:33;3.72;;;2.40;;
10721;SDS011;5412;59.450;18.124;2023-07-02T11:15:09;1.98;;;1.85;;
10721;SDS011;5412;59.450;18.124;2023-07-02T11:17:36;2.17;;;1.98;;
10721;SDS011;5412;59.450;18.124;2023-07-02T11:20:03;2.08;;;1.98;;
10721;SDS011;5412;59.450;18.124;2023-07-02T11:22:33;2.30;;;1.95;;
10721;SDS011;5412;59.450;18.124;2023-07-02T11:25:16;7.82;;;2.03;;
10721;SDS011;5412;59.450;18.124;2023-07-02T11:27:45;1.98;;;1.88;;
10721;SDS011;5412;59.450;18.124;2023-07-02T11:30:11;2.67;;;1.90;;
10721;SDS011;5412;59.450;18.124;2023-07-02T11:32:47;2.30;;;2.15;;
10721;SDS011;5412;59.450;18.124;2023-07-02T11:35:14;1.95;;;1.85;;
10721;SDS011;5412;59.450;18.124;2023-07-02T11:37:41;2.20;;;2.00;;
10721;SDS011;5412;59.450;18.124;2023-07-02T11:40:07;2.13;;;2.00;;
10721;SDS011;5412;59.450;18.124;2023-07-02T11:42:33;2.45;;;1.90;;
10721;SDS011;5412;59.450;18.124;2023-07-02T11:44:59;2.75;;;2.10;;
10721;SDS011;5412;59.450;18.124;2023-07-02T11:47:25;2.10;;;1.92;;
10721;SDS011;5412;59.450;18.124;2023-07-02T11:49:52;1.98;;;1.88;;
10721;SDS011;5412;59.450;18.124;2023-07-02T11:52:20;2.55;;;2.35;;
10721;SDS011;5412;59.450;18.124;2023-07-02T11:54:46;2.20;;;2.00;;
10721;SDS011;5412;59.450;18.124;2023-07-02T11:57:12;2.60;;;2.40;;
10721;SDS011;5412;59.450;18.124;2023-07-02T11:59:38;2.53;;;2.33;;
10721;SDS011;5412;59.450;18.124;2023-07-02T12:02:03;4.30;;;2.17;;
10721;SDS011;5412;59.450;18.124;2023-07-02T12:04:29;1.92;;;1.83;;
10721;SDS011;5412;59.450;18.124;2023-07-02T12:06:55;1.95;;;1.85;;
10721;SDS011;5412;59.450;18.124;2023-07-02T12:09:21;2.67;;;2.10;;
10721;SDS011;5412;59.450;18.124;2023-07-02T12:11:47;1.60;;;1.50;;
10721;SDS011;5412;59.450;18.124;2023-07-02T12:14:12;2.53;;;2.10;;
10721;SDS011;5412;59.450;18.124;2023-07-02T12:16:38;2.10;;;1.90;;
10721;SDS011;5412;59.450;18.124;2023-07-02T12:19:04;2.22;;;2.03;;
10721;SDS011;5412;59.450;18.124;2023-07-02T12:21:30;2.28;;;1.92;;
10721;SDS011;5412;59.450;18.124;2023-07-02T12:23:56;2.03;;;1.83;;
10721;SDS011;5412;59.450;18.124;2023-07-02T12:26:22;2.03;;;1.80;;
10721;SDS011;5412;59.450;18.124;2023-07-02T12:28:48;1.80;;;1.70;;
10721;SDS011;5412;59.450;18.124;2023-07-02T12:31:13;3.30;;;2.13;;
10721;SDS011;5412;59.450;18.124;2023-07-02T12:33:39;2.38;;;2.17;;
10721;SDS011;5412;59.450;18.124;2023-07-02T12:36:05;2.20;;;2.00;;
10721;SDS011;5412;59.450;18.124;2023-07-02T12:38:31;3.35;;;1.90;;
10721;SDS011;5412;59.450;18.124;2023-07-02T12:40:57;2.83;;;2.20;;
10721;SDS011;5412;59.450;18.124;2023-07-02T12:43:22;5.65;;;2.33;;
10721;SDS011;5412;59.450;18.124;2023-07-02T12:45:48;2.33;;;2.13;;
10721;SDS011;5412;59.450;18.124;2023-07-02T12:48:14;2.10;;;2.00;;
10721;SDS011;5412;59.450;18.124;2023-07-02T12:50:40;3.70;;;2.50;;
10721;SDS011;5412;59.450;18.124;2023-07-02T12:53:06;3.92;;;2.03;;
10721;SDS011;5412;59.450;18.124;2023-07-02T12:55:31;3.15;;;2.10;;
10721;SDS011;5412;59.450;18.124;2023-07-02T12:57:57;2.60;;;2.22;;
10721;SDS011;5412;59.450;18.124;2023-07-02T13:00:23;3.30;;;2.13;;
10721;SDS011;5412;59.450;18.124;2023-07-02T13:02:49;2.88;;;2.53;;
10721;SDS011;5412;59.450;18.124;2023-07-02T13:05:14;2.50;;;2.30;;
10721;SDS011;5412;59.450;18.124;2023-07-02T13:07:40;3.35;;;2.70;;
10721;SDS011;5412;59.450;18.124;2023-07-02T13:10:06;2.88;;;2.47;;
10721;SDS011;5412;59.450;18.124;2023-07-02T13:12:32;5.22;;;4.28;;
10721;SDS011;5412;59.450;18.124;2023-07-02T13:14:58;5.25;;;4.75;;
10721;SDS011;5412;59.450;18.124;2023-07-02T13:17:24;2.92;;;2.45;;
10721;SDS011;5412;59.450;18.124;2023-07-02T13:19:49;4.28;;;2.80;;
10721;SDS011;5412;59.450;18.124;2023-07-02T13:22:15;3.20;;;2.90;;
10721;SDS011;5412;59.450;18.124;2023-07-02T13:24:41;2.80;;;2.60;;
10721;SDS011;5412;59.450;18.124;2023-07-02T13:27:09;3.38;;;2.30;;
10721;SDS011;5412;59.450;18.124;2023-07-02T13:29:38;3.33;;;2.72;;
10721;SDS011;5412;59.450;18.124;2023-07-02T13:32:04;3.03;;;2.72;;
10721;SDS011;5412;59.450;18.124;2023-07-02T13:34:30;2.95;;;2.72;;
10721;SDS011;5412;59.450;18.124;2023-07-02T13:36:56;3.88;;;3.28;;
10721;SDS011;5412;59.450;18.124;2023-07-02T13:39:22;2.50;;;2.30;;
10721;SDS011;5412;59.450;18.124;2023-07-02T13:41:47;3.85;;;2.80;;
10721;SDS011;5412;59.450;18.124;2023-07-02T13:44:14;3.00;;;2.80;;
10721;SDS011;5412;59.450;18.124;2023-07-02T13:46:41;2.75;;;2.55;;
10721;SDS011;5412;59.450;18.124;2023-07-02T13:49:08;3.17;;;2.83;;
10721;SDS011;5412;59.450;18.124;2023-07-02T13:51:35;3.67;;;2.85;;
10721;SDS011;5412;59.450;18.124;2023-07-02T13:54:01;3.00;;;2.53;;
10721;SDS011;5412;59.450;18.124;2023-07-02T13:56:27;3.17;;;2.88;;
10721;SDS011;5412;59.450;18.124;2023-07-02T14:01:22;3.25;;;2.95;;
10721;SDS011;5412;59.450;18.124;2023-07-02T14:03:48;3.72;;;3.40;;
10721;SDS011;5412;59.450;18.124;2023-07-02T14:06:14;3.42;;;3.13;;
10721;SDS011;5412;59.450;18.124;2023-07-02T14:08:40;3.70;;;3.40;;
10721;SDS011;5412;59.450;18.124;2023-07-02T14:11:06;3.72;;;3.33;;
10721;SDS011;5412;59.450;18.124;2023-07-02T14:13:33;4.78;;;4.05;;
10721;SDS011;5412;59.450;18.124;2023-07-02T14:15:59;4.70;;;3.92;;
10721;SDS011;5412;59.450;18.124;2023-07-02T14:18:25;5.80;;;4.10;;
10721;SDS011;5412;59.450;18.124;2023-07-02T14:20:50;4.53;;;3.75;;
10721;SDS011;5412;59.450;18.124;2023-07-02T14:23:16;5.07;;;3.95;;
10721;SDS011;5412;59.450;18.124;2023-07-02T14:25:42;4.82;;;4.28;;
10721;SDS011;5412;59.450;18.124;2023-07-02T14:28:08;7.38;;;4.05;;
10721;SDS011;5412;59.450;18.124;2023-07-02T14:30:35;3.95;;;3.33;;
10721;SDS011;5412;59.450;18.124;2023-07-02T14:33:01;3.92;;;3.53;;
10721;SDS011;5412;59.450;18.124;2023-07-02T14:35:28;5.25;;;4.10;;
10721;SDS011;5412;59.450;18.124;2023-07-02T14:37:56;5.90;;;4.20;;
10721;SDS011;5412;59.450;18.124;2023-07-02T14:40:22;3.97;;;3.63;;
10721;SDS011;5412;59.450;18.124;2023-07-02T14:42:48;3.92;;;3.53;;
10721;SDS011;5412;59.450;18.124;2023-07-02T14:45:14;5.13;;;3.72;;
10721;SDS011;5412;59.450;18.124;2023-07-02T14:47:40;3.42;;;3.13;;
10721;SDS011;5412;59.450;18.124;2023-07-02T14:50:05;3.35;;;2.90;;
10721;SDS011;5412;59.450;18.124;2023-07-02T14:52:31;3.35;;;2.60;;